createdAt,value
2018-03-28T00:00:35.253Z,97926.38
2018-03-28T00:03:02.661Z,97921.67
2018-03-28T00:05:30.067Z,97921.63
2018-03-28T00:07:57.470Z,97919.94
2018-03-28T00:10:24.861Z,97922.20
2018-03-28T00:12:52.266Z,97923.64
2018-03-28T00:15:19.658Z,97925.45
2018-03-28T00:17:47.079Z,97922.02
2018-03-28T00:20:14.478Z,97922.99
2018-03-28T00:22:42.034Z,97916.92
2018-03-28T00:25:09.436Z,97916.88
2018-03-28T00:27:36.838Z,97917.41
2018-03-28T00:30:04.238Z,97924.13
2018-03-28T00:32:31.664Z,97924.67
2018-03-28T00:34:59.062Z,97928.90
2018-03-28T00:37:26.468Z,97928.06
2018-03-28T00:39:54.081Z,97931.80
2018-03-28T00:42:21.538Z,97927.79
2018-03-28T00:44:48.894Z,97926.14
2018-03-28T00:47:16.304Z,97928.08
2018-03-28T00:49:43.746Z,97929.47
2018-03-28T00:52:11.167Z,97918.59
2018-03-28T00:54:38.567Z,97926.16
2018-03-28T00:57:06.012Z,97918.63
2018-03-28T00:59:33.489Z,97910.09
2018-03-28T01:02:00.885Z,97909.25
2018-03-28T01:04:28.372Z,97907.34
2018-03-28T01:06:55.761Z,97906.73
2018-03-28T01:09:23.183Z,97894.10
2018-03-28T01:11:50.577Z,97889.80
2018-03-28T01:14:18.003Z,97892.14
2018-03-28T01:16:45.392Z,97893.12
2018-03-28T01:19:12.809Z,97893.79
2018-03-28T01:21:40.203Z,97895.94
2018-03-28T01:24:08.058Z,97898.14
2018-03-28T01:26:35.472Z,97896.03
2018-03-28T01:29:02.873Z,97890.69
2018-03-28T01:31:30.310Z,97891.36
2018-03-28T01:33:57.715Z,97892.16
2018-03-28T01:36:25.137Z,97893.12
2018-03-28T01:38:52.573Z,97898.14
2018-03-28T01:41:19.959Z,97887.00
2018-03-28T01:43:47.381Z,97889.77
2018-03-28T01:46:15.485Z,97886.25
2018-03-28T01:48:42.927Z,97879.53
2018-03-28T01:51:10.316Z,97874.38
2018-03-28T01:53:37.735Z,97883.03
2018-03-28T01:56:05.136Z,97880.19
2018-03-28T01:58:32.550Z,97882.37
2018-03-28T02:00:59.995Z,97886.54
2018-03-28T02:03:27.413Z,97889.12
2018-03-28T02:05:54.826Z,97886.86
2018-03-28T02:08:22.224Z,97885.84
2018-03-28T02:10:49.627Z,97880.69
2018-03-28T02:13:17.022Z,97882.42
2018-03-28T02:15:44.439Z,97878.17
2018-03-28T02:18:11.828Z,97871.49
2018-03-28T02:20:39.254Z,97874.34
2018-03-28T02:23:06.642Z,97868.12
2018-03-28T02:25:34.130Z,97868.64
2018-03-28T02:28:01.730Z,97867.69
2018-03-28T02:30:29.086Z,97868.26
2018-03-28T02:32:56.478Z,97860.74
2018-03-28T02:35:23.986Z,97856.70
2018-03-28T02:37:51.375Z,97857.16
2018-03-28T02:40:18.782Z,97857.99
2018-03-28T02:42:46.179Z,97856.53
2018-03-28T02:45:13.606Z,97864.53
2018-03-28T02:47:41.005Z,97855.44
2018-03-28T02:50:08.440Z,97855.35
2018-03-28T02:52:35.832Z,97857.36
2018-03-28T02:55:03.312Z,97856.12
2018-03-28T02:57:30.718Z,97858.13
2018-03-28T02:59:58.125Z,97863.59
2018-03-28T03:02:25.546Z,97862.06
2018-03-28T03:04:52.948Z,97868.67
2018-03-28T03:07:20.348Z,97867.92
2018-03-28T03:09:48.156Z,97874.27
2018-03-28T03:12:15.553Z,97860.45
2018-03-28T03:14:42.943Z,97878.20
2018-03-28T03:17:10.358Z,97874.97
2018-03-28T03:19:37.769Z,97876.28
2018-03-28T03:22:05.221Z,97874.47
2018-03-28T03:24:32.620Z,97879.04
2018-03-28T03:27:00.016Z,97878.33
2018-03-28T03:29:27.441Z,97888.36
2018-03-28T03:31:54.837Z,97884.36
2018-03-28T03:34:22.249Z,97887.19
2018-03-28T03:36:49.652Z,97890.99
2018-03-28T03:39:17.049Z,97898.79
2018-03-28T03:41:44.457Z,97895.30
2018-03-28T03:44:11.866Z,97896.72
2018-03-28T03:46:39.348Z,97895.95
2018-03-28T03:49:06.744Z,97898.58
2018-03-28T03:51:34.150Z,97888.09
2018-03-28T03:54:01.554Z,97897.69
2018-03-28T03:56:29.412Z,97901.91
2018-03-28T03:58:56.818Z,97903.43
2018-03-28T04:01:24.224Z,97895.01
2018-03-28T04:03:51.645Z,97891.61
2018-03-28T04:06:19.783Z,97901.64
2018-03-28T04:08:47.186Z,97904.05
2018-03-28T04:11:14.584Z,97910.34
2018-03-28T04:13:42.001Z,97905.69
2018-03-28T04:16:09.465Z,97907.20
2018-03-28T04:18:36.873Z,97899.27
2018-03-28T04:21:04.277Z,97911.98
2018-03-28T04:23:31.702Z,97913.58
2018-03-28T04:25:59.363Z,97910.53
2018-03-28T04:28:26.777Z,97909.98
2018-03-28T04:30:54.222Z,97914.33
2018-03-28T04:33:21.641Z,97915.50
2018-03-28T04:35:49.926Z,97914.20
2018-03-28T04:38:17.405Z,97921.66
2018-03-28T04:40:44.813Z,97920.64
2018-03-28T04:43:12.241Z,97925.81
2018-03-28T04:45:39.645Z,97928.44
2018-03-28T04:48:07.058Z,97933.34
2018-03-28T04:50:34.469Z,97938.86
2018-03-28T04:53:01.900Z,97938.34
2018-03-28T04:55:29.307Z,97936.03
2018-03-28T04:57:56.709Z,97939.12
2018-03-28T05:00:24.121Z,97937.17
2018-03-28T05:02:51.542Z,97933.79
2018-03-28T05:05:18.951Z,97939.94
2018-03-28T05:07:46.366Z,97931.45
2018-03-28T05:10:13.771Z,97920.67
2018-03-28T05:12:41.178Z,97921.36
2018-03-28T05:15:08.579Z,97922.97
2018-03-28T05:17:35.995Z,97926.70
2018-03-28T05:20:03.395Z,97915.25
2018-03-28T05:22:30.825Z,97921.73
2018-03-28T05:24:58.232Z,97930.92
2018-03-28T05:27:26.423Z,97921.36
2018-03-28T05:29:53.834Z,97924.91
2018-03-28T05:32:21.278Z,97923.98
2018-03-28T05:34:48.693Z,97922.55
2018-03-28T05:37:16.104Z,97918.13
2018-03-28T05:39:43.518Z,97911.77
2018-03-28T05:42:10.901Z,97903.89
2018-03-28T05:44:38.316Z,97904.86
2018-03-28T05:47:05.730Z,97912.34
2018-03-28T05:49:33.130Z,97919.02
2018-03-28T05:52:00.539Z,97919.07
2018-03-28T05:54:28.000Z,97909.48
2018-03-28T05:56:55.347Z,97902.80
2018-03-28T05:59:23.250Z,97899.30
2018-03-28T06:01:50.652Z,97903.98
2018-03-28T06:04:18.055Z,97907.28
2018-03-28T06:06:45.453Z,97912.33
2018-03-28T06:09:12.849Z,97905.56
2018-03-28T06:11:40.252Z,97907.03
2018-03-28T06:14:07.659Z,97901.55
2018-03-28T06:16:35.074Z,97910.96
2018-03-28T06:19:02.506Z,97911.77
2018-03-28T06:21:29.906Z,97912.87
2018-03-28T06:23:57.304Z,97911.58
2018-03-28T06:26:24.724Z,97914.73
2018-03-28T06:28:52.232Z,97917.65
2018-03-28T06:31:19.638Z,97917.36
2018-03-28T06:33:47.066Z,97918.26
2018-03-28T06:36:15.361Z,97909.22
2018-03-28T06:38:42.698Z,97916.27
2018-03-28T06:41:10.107Z,97914.20
2018-03-28T06:43:37.622Z,97917.71
2018-03-28T06:46:05.019Z,97902.09
2018-03-28T06:48:32.435Z,97903.12
2018-03-28T06:50:59.846Z,97902.28
2018-03-28T06:53:27.253Z,97903.66
2018-03-28T06:55:55.079Z,97902.79
2018-03-28T06:58:22.495Z,97890.55
2018-03-28T07:00:49.901Z,97888.58
2018-03-28T07:03:17.306Z,97890.36
2018-03-28T07:05:44.726Z,97884.30
2018-03-28T07:08:12.128Z,97895.70
2018-03-28T07:10:39.533Z,97901.95
2018-03-28T07:13:06.958Z,97902.98
2018-03-28T07:15:34.385Z,97899.74
2018-03-28T07:18:01.773Z,97903.42
2018-03-28T07:20:29.237Z,97899.44
2018-03-28T07:22:56.660Z,97900.47
2018-03-28T07:25:24.054Z,97906.27
2018-03-28T07:27:51.468Z,97906.73
2018-03-28T07:30:18.866Z,97907.76
2018-03-28T07:32:46.272Z,97908.72
2018-03-28T07:35:13.668Z,97916.23
2018-03-28T07:37:41.074Z,97919.15
2018-03-28T07:40:08.476Z,97924.73
2018-03-28T07:42:35.889Z,97928.00
2018-03-28T07:45:03.290Z,97931.05
2018-03-28T07:47:30.757Z,97925.80
2018-03-28T07:49:58.194Z,97920.75
2018-03-28T07:52:25.614Z,97930.37
2018-03-28T07:54:53.014Z,97923.94
2018-03-28T07:57:20.431Z,97931.59
2018-03-28T07:59:47.832Z,97937.27
2018-03-28T08:02:15.242Z,97927.73
2018-03-28T08:04:42.638Z,97930.02
2018-03-28T08:07:10.109Z,97940.23
2018-03-28T08:09:37.567Z,97935.73
2018-03-28T08:12:04.926Z,97938.92
2018-03-28T08:14:32.444Z,97930.01
2018-03-28T08:16:59.846Z,97924.91
2018-03-28T08:19:28.019Z,97914.48
2018-03-28T08:21:55.494Z,97908.05
2018-03-28T08:24:23.009Z,97907.08
2018-03-28T08:26:50.398Z,97911.72
2018-03-28T08:29:17.829Z,97907.02
2018-03-28T08:31:45.248Z,97908.33
2018-03-28T08:34:12.649Z,97900.58
2018-03-28T08:36:40.049Z,97903.49
2018-03-28T08:39:07.470Z,97898.83
2018-03-28T08:41:35.015Z,97898.45
2018-03-28T08:44:02.441Z,97898.66
2018-03-28T08:46:29.833Z,97894.46
2018-03-28T08:48:57.261Z,97894.55
2018-03-28T08:51:24.654Z,97901.02
2018-03-28T08:53:52.154Z,97898.47
2018-03-28T08:56:19.565Z,97894.44
2018-03-28T08:58:46.987Z,97897.75
2018-03-28T09:01:14.399Z,97896.07
2018-03-28T09:03:41.812Z,97893.73
2018-03-28T09:06:09.218Z,97885.80
2018-03-28T09:08:36.639Z,97884.75
2018-03-28T09:11:04.051Z,97890.58
2018-03-28T09:13:31.468Z,97887.53
2018-03-28T09:15:58.874Z,97877.38
2018-03-28T09:18:26.322Z,97881.34
2018-03-28T09:20:53.725Z,97878.95
2018-03-28T09:23:21.141Z,97889.59
2018-03-28T09:25:48.556Z,97882.33
2018-03-28T09:28:15.972Z,97874.75
2018-03-28T09:30:43.372Z,97863.88
2018-03-28T09:33:10.798Z,97863.09
2018-03-28T09:35:38.296Z,97841.85
2018-03-28T09:38:05.698Z,97848.05
2018-03-28T09:40:33.120Z,97858.81
2018-03-28T09:43:01.101Z,97855.81
2018-03-28T09:45:28.630Z,97852.13
2018-03-28T09:47:56.030Z,97845.06
2018-03-28T09:50:23.440Z,97839.11
2018-03-28T09:52:50.849Z,97847.45
2018-03-28T09:55:18.361Z,97831.08
2018-03-28T09:57:45.777Z,97832.91
2018-03-28T10:00:18.781Z,97824.17
2018-03-28T10:02:46.206Z,97818.23
2018-03-28T10:05:13.616Z,97808.70
2018-03-28T10:07:41.017Z,97815.14
2018-03-28T10:10:08.443Z,97813.28
2018-03-28T10:12:35.889Z,97801.91
2018-03-28T10:15:03.316Z,97798.97
2018-03-28T10:17:30.748Z,97792.77
2018-03-28T10:19:58.114Z,97799.86
2018-03-28T10:22:25.562Z,97797.29
2018-03-28T10:24:52.962Z,97786.79
2018-03-28T10:27:20.372Z,97789.33
2018-03-28T10:29:47.862Z,97785.73
2018-03-28T10:32:15.223Z,97786.87
2018-03-28T10:34:42.633Z,97782.45
2018-03-28T10:37:10.042Z,97774.98
2018-03-28T10:39:37.509Z,97775.30
2018-03-28T10:42:04.943Z,97771.34
2018-03-28T10:44:32.358Z,97757.05
2018-03-28T10:46:59.769Z,97756.27
2018-03-28T10:49:27.175Z,97752.55
2018-03-28T10:51:54.625Z,97746.09
2018-03-28T10:54:22.018Z,97736.53
2018-03-28T10:56:49.442Z,97730.05
2018-03-28T10:59:16.937Z,97720.22
2018-03-28T11:01:44.391Z,97718.31
2018-03-28T11:04:11.826Z,97710.38
2018-03-28T11:06:39.346Z,97708.77
2018-03-28T11:09:06.758Z,97703.41
2018-03-28T11:11:34.474Z,97694.89
2018-03-28T11:14:01.957Z,97702.08
2018-03-28T11:16:29.454Z,97693.84
2018-03-28T11:18:56.861Z,97688.48
2018-03-28T11:21:24.442Z,97690.70
2018-03-28T11:23:51.917Z,97693.08
2018-03-28T11:26:19.338Z,97682.66
2018-03-28T11:28:47.346Z,97683.27
2018-03-28T11:31:15.412Z,97681.71
2018-03-28T11:33:42.897Z,97686.94
2018-03-28T11:36:10.315Z,97685.93
2018-03-28T11:38:37.715Z,97674.57
2018-03-28T11:41:05.613Z,97674.63
2018-03-28T11:43:38.387Z,97680.99
2018-03-28T11:46:06.056Z,97682.21
2018-03-28T11:48:33.506Z,97672.66
2018-03-28T11:51:01.150Z,97672.23
2018-03-28T11:53:28.546Z,97665.32
2018-03-28T11:55:55.984Z,97660.32
2018-03-28T11:58:23.399Z,97656.09
2018-03-28T12:00:50.830Z,97652.56
2018-03-28T12:03:18.243Z,97648.17
2018-03-28T12:05:45.665Z,97655.68
2018-03-28T12:08:13.170Z,97647.16
2018-03-28T12:10:40.565Z,97631.91
2018-03-28T12:13:07.974Z,97636.61
2018-03-28T12:15:35.382Z,97631.16
2018-03-28T12:18:02.915Z,97630.67
2018-03-28T12:20:30.320Z,97623.31
2018-03-28T12:22:57.785Z,97618.23
2018-03-28T12:25:25.230Z,97611.14
2018-03-28T12:27:52.643Z,97603.88
2018-03-28T12:30:20.048Z,97593.14
2018-03-28T12:32:47.459Z,97588.36
2018-03-28T12:35:14.865Z,97582.77
2018-03-28T12:37:42.270Z,97583.08
2018-03-28T12:40:09.678Z,97577.10
2018-03-28T12:42:37.198Z,97577.27
2018-03-28T12:45:04.603Z,97572.95
2018-03-28T12:47:32.027Z,97574.03
2018-03-28T12:49:59.534Z,97568.38
2018-03-28T12:52:26.854Z,97559.88
2018-03-28T12:54:54.258Z,97558.08
2018-03-28T12:57:21.675Z,97561.55
2018-03-28T12:59:49.087Z,97550.66
2018-03-28T13:02:16.626Z,97548.91
2018-03-28T13:04:44.018Z,97540.33
2018-03-28T13:07:11.419Z,97540.48
2018-03-28T13:09:39.324Z,97535.53
2018-03-28T13:12:06.732Z,97531.30
2018-03-28T13:14:34.137Z,97524.28
2018-03-28T13:17:01.544Z,97520.31
2018-03-28T13:19:29.065Z,97518.86
2018-03-28T13:21:56.469Z,97515.60
2018-03-28T13:24:23.888Z,97503.86
2018-03-28T13:26:51.285Z,97493.93
2018-03-28T13:29:18.737Z,97488.31
2018-03-28T13:31:46.153Z,97488.13
2018-03-28T13:34:13.558Z,97481.46
2018-03-28T13:36:41.647Z,97475.51
2018-03-28T13:39:09.086Z,97476.00
2018-03-28T13:41:36.526Z,97476.96
2018-03-28T13:44:03.953Z,97470.61
2018-03-28T13:46:31.561Z,97471.03
2018-03-28T13:48:58.977Z,97467.09
2018-03-28T13:51:26.391Z,97469.41
2018-03-28T13:53:53.794Z,97454.12
2018-03-28T13:56:21.196Z,97443.27
2018-03-28T13:58:48.617Z,97445.66
2018-03-28T14:01:16.026Z,97440.82
2018-03-28T14:03:43.433Z,97440.36
2018-03-28T14:06:10.842Z,97432.47
2018-03-28T14:08:38.266Z,97423.38
2018-03-28T14:11:05.702Z,97416.75
2018-03-28T14:13:33.097Z,97412.05
2018-03-28T14:16:00.532Z,97410.89
2018-03-28T14:18:27.937Z,97403.64
2018-03-28T14:20:55.453Z,97410.13
2018-03-28T14:23:22.826Z,97391.67
2018-03-28T14:25:50.261Z,97385.36
2018-03-28T14:28:18.516Z,97378.31
2018-03-28T14:30:45.988Z,97361.23
2018-03-28T14:33:13.436Z,97349.45
2018-03-28T14:35:40.863Z,97340.01
2018-03-28T14:38:08.340Z,97332.95
2018-03-28T14:40:35.760Z,97328.19
2018-03-28T14:43:03.183Z,97323.85
2018-03-28T14:45:30.589Z,97321.35
2018-03-28T14:47:58.051Z,97315.28
2018-03-28T14:50:25.467Z,97311.00
2018-03-28T14:52:52.871Z,97304.52
2018-03-28T14:55:20.282Z,97291.83
2018-03-28T14:57:47.758Z,97280.90
2018-03-28T15:00:15.196Z,97284.06
2018-03-28T15:02:42.640Z,97280.42
2018-03-28T15:05:10.034Z,97271.69
2018-03-28T15:07:37.455Z,97268.84
2018-03-28T15:10:04.852Z,97272.52
2018-03-28T15:12:32.269Z,97267.95
2018-03-28T15:14:59.682Z,97266.81
2018-03-28T15:17:27.094Z,97260.23
2018-03-28T15:19:54.494Z,97261.12
2018-03-28T15:22:21.990Z,97262.09
2018-03-28T15:24:49.556Z,97261.20
2018-03-28T15:27:17.730Z,97253.95
2018-03-28T15:29:45.938Z,97261.64
2018-03-28T15:32:13.346Z,97251.67
2018-03-28T15:34:40.774Z,97252.67
2018-03-28T15:37:08.194Z,97237.61
2018-03-28T15:39:35.629Z,97233.52
2018-03-28T15:42:03.066Z,97235.33
2018-03-28T15:44:30.461Z,97227.15
2018-03-28T15:46:57.881Z,97231.69
2018-03-28T15:49:25.273Z,97217.63
2018-03-28T15:51:52.686Z,97207.10
2018-03-28T15:54:20.097Z,97201.11
2018-03-28T15:56:51.457Z,97194.05
2018-03-28T15:59:19.010Z,97183.34
2018-03-28T16:01:47.741Z,97175.73
2018-03-28T16:04:15.642Z,97174.55
2018-03-28T16:06:53.220Z,97176.77
2018-03-28T16:09:21.005Z,97175.45
2018-03-28T16:11:48.450Z,97163.89
2018-03-28T16:14:15.850Z,97162.58
2018-03-28T16:16:43.308Z,97170.81
2018-03-28T16:19:10.702Z,97157.42
2018-03-28T16:21:38.122Z,97154.03
2018-03-28T16:24:05.529Z,97154.52
2018-03-28T16:26:32.921Z,97153.92
2018-03-28T16:29:00.369Z,97154.75
2018-03-28T16:31:27.741Z,97142.95
2018-03-28T16:33:55.165Z,97137.90
2018-03-28T16:36:22.571Z,97133.53
2018-03-28T16:38:50.084Z,97124.44
2018-03-28T16:41:18.015Z,97129.80
2018-03-28T16:43:45.429Z,97132.67
2018-03-28T16:46:12.837Z,97125.92
2018-03-28T16:48:40.279Z,97123.30
2018-03-28T16:51:07.663Z,97115.99
2018-03-28T16:53:35.080Z,97113.67
2018-03-28T16:56:02.478Z,97106.23
2018-03-28T16:58:29.906Z,97103.81
2018-03-28T17:00:57.536Z,97103.91
2018-03-28T17:03:26.708Z,97108.76
2018-03-28T17:05:54.816Z,97104.88
2018-03-28T17:08:22.316Z,97106.44
2018-03-28T17:10:49.779Z,97109.66
2018-03-28T17:13:17.191Z,97104.22
2018-03-28T17:15:44.597Z,97108.40
2018-03-28T17:18:12.114Z,97104.59
2018-03-28T17:20:39.554Z,97112.10
2018-03-28T17:23:08.286Z,97113.55
2018-03-28T17:25:35.679Z,97117.92
2018-03-28T17:28:03.114Z,97117.75
2018-03-28T17:30:30.507Z,97125.22
2018-03-28T17:32:57.957Z,97133.04
2018-03-28T17:35:25.360Z,97126.09
2018-03-28T17:37:52.765Z,97132.42
2018-03-28T17:40:20.172Z,97130.77
2018-03-28T17:42:47.577Z,97135.89
2018-03-28T17:45:15.017Z,97140.16
2018-03-28T17:47:42.409Z,97166.55
2018-03-28T17:50:09.816Z,97186.02
2018-03-28T17:52:37.247Z,97196.13
2018-03-28T17:55:04.700Z,97191.03
2018-03-28T17:57:32.111Z,97208.55
2018-03-28T17:59:59.518Z,97208.48
2018-03-28T18:02:26.950Z,97210.11
2018-03-28T18:04:54.367Z,97215.94
2018-03-28T18:07:21.769Z,97218.73
2018-03-28T18:09:49.194Z,97217.59
2018-03-28T18:12:16.658Z,97215.05
2018-03-28T18:14:44.095Z,97220.21
2018-03-28T18:17:11.493Z,97225.23
2018-03-28T18:19:38.982Z,97216.50
2018-03-28T18:22:06.382Z,97221.60
2018-03-28T18:24:33.781Z,97227.75
2018-03-28T18:27:01.199Z,97226.68
2018-03-28T18:29:28.605Z,97222.80
2018-03-28T18:31:56.021Z,97216.64
2018-03-28T18:34:23.441Z,97216.12
2018-03-28T18:36:51.345Z,97217.95
2018-03-28T18:39:18.765Z,97214.25
2018-03-28T18:41:46.171Z,97223.62
2018-03-28T18:44:13.585Z,97215.40
2018-03-28T18:46:41.021Z,97215.89
2018-03-28T18:49:08.434Z,97220.27
2018-03-28T18:51:35.847Z,97216.86
2018-03-28T18:54:03.328Z,97220.22
2018-03-28T18:56:30.729Z,97219.03
2018-03-28T18:58:58.182Z,97217.45
2018-03-28T19:01:25.606Z,97207.93
2018-03-28T19:03:53.006Z,97213.42
2018-03-28T19:06:20.454Z,97218.03
2018-03-28T19:08:47.877Z,97212.11
2018-03-28T19:11:15.344Z,97210.80
2018-03-28T19:13:42.809Z,97207.27
2018-03-28T19:16:10.328Z,97211.15
2018-03-28T19:18:37.737Z,97203.31
2018-03-28T19:21:05.166Z,97204.73
2018-03-28T19:23:32.566Z,97208.25
2018-03-28T19:25:59.979Z,97208.62
2018-03-28T19:28:27.708Z,97213.31
2018-03-28T19:30:55.121Z,97205.82
2018-03-28T19:33:23.064Z,97211.63
2018-03-28T19:35:50.525Z,97212.55
2018-03-28T19:38:17.922Z,97209.26
2018-03-28T19:40:45.343Z,97213.95
2018-03-28T19:43:12.916Z,97215.70
2018-03-28T19:45:40.337Z,97222.41
2018-03-28T19:48:07.765Z,97217.76
2018-03-28T19:50:35.225Z,97222.19
2018-03-28T19:53:02.663Z,97223.09
2018-03-28T19:55:30.655Z,97232.44
2018-03-28T19:57:58.806Z,97229.09
2018-03-28T20:00:26.388Z,97230.30
2018-03-28T20:02:53.998Z,97230.73
2018-03-28T20:05:21.436Z,97236.25
2018-03-28T20:07:48.821Z,97241.94
2018-03-28T20:10:16.253Z,97252.67
2018-03-28T20:12:43.653Z,97260.23
2018-03-28T20:15:11.465Z,97256.63
2018-03-28T20:17:38.878Z,97255.38
2018-03-28T20:20:06.296Z,97260.65
2018-03-28T20:22:33.718Z,97269.92
2018-03-28T20:25:01.134Z,97282.91
2018-03-28T20:27:28.550Z,97276.54
2018-03-28T20:29:56.428Z,97272.14
2018-03-28T20:32:23.943Z,97272.05
2018-03-28T20:34:51.360Z,97278.62
2018-03-28T20:37:18.836Z,97285.39
2018-03-28T20:39:46.229Z,97295.47
2018-03-28T20:42:13.715Z,97298.74
2018-03-28T20:44:41.118Z,97291.34
2018-03-28T20:47:08.531Z,97301.05
2018-03-28T20:49:35.975Z,97300.45
2018-03-28T20:52:03.421Z,97299.19
2018-03-28T20:54:30.834Z,97303.17
2018-03-28T20:56:58.249Z,97301.44
2018-03-28T20:59:26.081Z,97319.74
2018-03-28T21:01:53.509Z,97306.17
2018-03-28T21:04:20.930Z,97310.57
2018-03-28T21:06:48.328Z,97314.60
2018-03-28T21:09:15.793Z,97311.49
2018-03-28T21:11:43.311Z,97310.78
2018-03-28T21:14:10.726Z,97323.64
2018-03-28T21:16:38.298Z,97332.95
2018-03-28T21:19:05.719Z,97335.06
2018-03-28T21:21:33.134Z,97350.29
2018-03-28T21:24:00.557Z,97352.57
2018-03-28T21:26:28.089Z,97357.92
2018-03-28T21:28:55.502Z,97360.76
2018-03-28T21:31:22.900Z,97381.91
2018-03-28T21:33:50.388Z,97378.55
2018-03-28T21:36:18.024Z,97393.95
2018-03-28T21:38:45.446Z,97390.62
2018-03-28T21:41:12.843Z,97388.89
2018-03-28T21:43:40.305Z,97408.04
2018-03-28T21:46:07.715Z,97410.59
2018-03-28T21:48:35.123Z,97406.58
2018-03-28T21:51:02.601Z,97415.52
2018-03-28T21:53:30.022Z,97415.72
2018-03-28T21:55:57.929Z,97416.56
2018-03-28T21:58:25.354Z,97418.69
2018-03-28T22:02:37.991Z,97439.31
2018-03-28T22:05:05.416Z,97435.53
2018-03-28T22:07:32.825Z,97443.22
2018-03-28T22:10:00.242Z,97434.81
2018-03-28T22:12:28.565Z,97434.64
2018-03-28T22:14:56.015Z,97443.70
2018-03-28T22:17:23.458Z,97453.25
2018-03-28T22:19:50.951Z,97456.97
2018-03-28T22:22:18.422Z,97470.83
2018-03-28T22:24:45.864Z,97483.16
2018-03-28T22:27:13.368Z,97494.34
2018-03-28T22:29:40.781Z,97500.28
2018-03-28T22:32:08.242Z,97508.18
2018-03-28T22:34:35.662Z,97521.81
2018-03-28T22:37:03.066Z,97514.85
2018-03-28T22:39:30.475Z,97501.91
2018-03-28T22:41:57.878Z,97498.12
2018-03-28T22:44:25.286Z,97497.51
2018-03-28T22:46:52.715Z,97532.83
2018-03-28T22:49:20.161Z,97547.16
2018-03-28T22:51:47.594Z,97538.53
2018-03-28T22:54:15.565Z,97565.42
2018-03-28T22:56:42.978Z,97552.93
2018-03-28T22:59:10.378Z,97538.48
2018-03-28T23:01:37.823Z,97552.06
2018-03-28T23:04:05.235Z,97535.84
2018-03-28T23:06:32.655Z,97549.86
2018-03-28T23:09:00.677Z,97541.23
2018-03-28T23:11:28.091Z,97521.39
2018-03-28T23:13:55.582Z,97547.50
2018-03-28T23:16:23.008Z,97576.63
2018-03-28T23:18:50.431Z,97596.64
2018-03-28T23:21:17.912Z,97618.48
2018-03-28T23:23:46.186Z,97598.84
2018-03-28T23:26:13.659Z,97597.73
2018-03-28T23:28:41.059Z,97583.53
2018-03-28T23:31:08.600Z,97608.05
2018-03-28T23:33:35.999Z,97620.10
2018-03-28T23:36:03.431Z,97614.23
2018-03-28T23:38:31.981Z,97617.88
2018-03-28T23:40:59.370Z,97634.40
2018-03-28T23:43:26.788Z,97630.53
2018-03-28T23:45:54.193Z,97641.00
2018-03-28T23:48:21.683Z,97641.08
2018-03-28T23:50:49.096Z,97647.63
2018-03-28T23:53:16.498Z,97654.07
2018-03-28T23:55:43.915Z,97659.06
2018-03-28T23:58:11.323Z,97654.26
